createdAt,value
2022-11-02T00:09:12.298Z,12.00
2022-11-02T00:14:06.515Z,11.90
2022-11-02T00:19:03.339Z,12.00
2022-11-02T00:23:58.938Z,12.10
2022-11-02T00:26:29.532Z,12.10
2022-11-02T00:33:51.935Z,11.90
2022-11-02T00:41:15.322Z,11.70
2022-11-02T00:51:44.250Z,11.70
2022-11-02T00:56:44.695Z,11.80
2022-11-02T01:01:47.452Z,11.90
2022-11-02T01:04:15.564Z,12.10
2022-11-02T01:06:43.981Z,12.10
2022-11-02T01:11:42.820Z,12.10
2022-11-02T01:39:03.439Z,12.20
2022-11-02T01:44:02.863Z,12.20
2022-11-02T01:46:45.904Z,12.10
2022-11-02T01:49:19.479Z,12.10
2022-11-02T01:51:54.614Z,11.90
2022-11-02T01:54:25.318Z,12.00
2022-11-02T01:57:02.406Z,12.00
2022-11-02T01:59:34.990Z,12.00
2022-11-02T02:02:05.809Z,12.00
2022-11-02T02:04:33.635Z,12.00
2022-11-02T02:09:32.173Z,11.70
2022-11-02T02:17:24.684Z,11.80
2022-11-02T02:20:24.469Z,11.70
2022-11-02T02:23:11.582Z,11.70
2022-11-02T02:26:16.157Z,11.70
2022-11-02T02:29:01.426Z,11.70
2022-11-02T02:36:51.603Z,11.80
2022-11-02T02:39:35.524Z,11.80
2022-11-02T02:42:12.307Z,11.80
2022-11-02T02:44:45.905Z,11.70
2022-11-02T02:47:27.732Z,11.50
2022-11-02T02:50:14.899Z,11.50
2022-11-02T02:52:44.109Z,11.50
2022-11-02T02:55:20.600Z,11.60
2022-11-02T02:57:49.379Z,11.60
2022-11-02T03:00:18.036Z,11.50
2022-11-02T03:03:01.087Z,11.40
2022-11-02T03:05:35.003Z,11.30
2022-11-02T03:08:21.953Z,11.20
2022-11-02T03:11:01.517Z,11.10
2022-11-02T03:13:42.073Z,11.10
2022-11-02T03:16:24.695Z,11.00
2022-11-02T03:19:21.028Z,11.10
2022-11-02T03:21:55.992Z,11.10
2022-11-02T03:24:42.838Z,11.00
2022-11-02T03:27:21.824Z,10.90
2022-11-02T03:29:54.820Z,11.00
2022-11-02T03:32:32.418Z,11.00
2022-11-02T03:35:04.490Z,11.20
2022-11-02T03:40:10.908Z,11.20
2022-11-02T03:42:42.335Z,11.20
2022-11-02T03:45:16.096Z,11.30
2022-11-02T03:47:48.926Z,11.30
2022-11-02T03:50:20.882Z,11.30
2022-11-02T03:53:03.712Z,11.30
2022-11-02T03:55:36.681Z,11.20
2022-11-02T04:00:35.900Z,11.20
2022-11-02T04:08:24.313Z,11.20
2022-11-02T04:45:34.057Z,11.20
2022-11-02T04:48:09.434Z,11.30
2022-11-02T04:53:07.157Z,11.30
2022-11-02T05:08:01.007Z,11.30
2022-11-02T05:12:58.495Z,11.30
2022-11-02T05:32:44.013Z,11.50
2022-11-02T05:40:08.810Z,11.40
2022-11-02T05:57:21.207Z,11.40
2022-11-02T06:39:05.902Z,12.30
2022-11-02T06:58:44.140Z,12.10
2022-11-02T07:11:13.412Z,12.20
2022-11-02T07:30:55.005Z,12.70
2022-11-02T07:38:19.631Z,12.80
2022-11-02T07:40:50.711Z,12.90
2022-11-02T07:55:41.691Z,12.90
2022-11-02T07:58:11.253Z,13.00
2022-11-02T08:00:39.458Z,13.10
2022-11-02T08:03:08.406Z,13.30
2022-11-02T08:05:37.892Z,13.40
2022-11-02T08:08:07.689Z,13.30
2022-11-02T08:10:39.100Z,13.30
2022-11-02T08:13:12.263Z,13.30
2022-11-02T08:18:13.623Z,13.30
2022-11-02T08:23:09.664Z,13.20
2022-11-02T08:25:38.190Z,13.20
2022-11-02T08:33:11.091Z,13.30
2022-11-02T08:43:27.746Z,13.30
2022-11-02T08:46:14.457Z,13.30
2022-11-02T09:06:00.186Z,13.80
2022-11-02T09:11:00.216Z,13.80
2022-11-02T09:15:56.850Z,13.80
2022-11-02T09:20:51.817Z,13.80
2022-11-02T09:23:20.416Z,13.80
2022-11-02T09:25:48.043Z,14.10
2022-11-02T09:30:42.936Z,14.00
2022-11-02T09:35:41.439Z,13.90
2022-11-02T09:40:46.222Z,13.40
2022-11-02T09:43:45.307Z,14.00
2022-11-02T09:46:21.947Z,14.00
2022-11-02T09:49:00.018Z,13.70
2022-11-02T09:51:33.431Z,13.70
2022-11-02T09:54:18.332Z,13.70
2022-11-02T09:59:21.752Z,13.70
2022-11-02T10:01:55.650Z,13.60
2022-11-02T10:04:59.682Z,13.60
2022-11-02T10:07:51.203Z,13.50
2022-11-02T10:10:47.558Z,13.40
2022-11-02T10:13:48.217Z,12.90
2022-11-02T10:16:27.627Z,12.90
2022-11-02T10:18:55.270Z,13.50
2022-11-02T10:21:28.794Z,13.60
2022-11-02T10:23:57.888Z,13.50
2022-11-02T10:26:29.461Z,13.30
2022-11-02T10:29:12.808Z,13.70
2022-11-02T10:34:29.039Z,13.60
2022-11-02T10:39:48.203Z,15.90
2022-11-02T10:43:00.182Z,13.80
2022-11-02T10:46:05.184Z,13.60
2022-11-02T10:48:40.865Z,13.90
2022-11-02T10:51:12.867Z,13.70
2022-11-02T10:53:50.246Z,13.70
2022-11-02T10:59:10.559Z,14.10
2022-11-02T11:04:07.125Z,14.30
2022-11-02T11:06:42.954Z,14.60
2022-11-02T11:09:21.790Z,14.80
2022-11-02T11:12:07.037Z,14.80
2022-11-02T11:20:33.220Z,14.40
2022-11-02T11:23:17.987Z,14.40
2022-11-02T11:25:54.023Z,14.10
2022-11-02T11:28:24.643Z,13.80
2022-11-02T11:31:05.147Z,13.80
2022-11-02T11:33:33.837Z,14.20
2022-11-02T11:40:58.782Z,14.20
2022-11-02T11:43:29.107Z,14.50
2022-11-02T11:48:45.382Z,15.20
2022-11-02T11:51:25.269Z,15.00
2022-11-02T11:54:24.053Z,15.20
2022-11-02T11:56:57.283Z,15.10
2022-11-02T11:59:48.177Z,14.80
2022-11-02T12:02:42.973Z,14.50
2022-11-02T12:05:15.458Z,14.50
2022-11-02T12:08:04.463Z,14.50
2022-11-02T12:10:37.317Z,14.60
2022-11-02T12:13:44.360Z,14.50
2022-11-02T12:16:20.328Z,14.50
2022-11-02T12:19:18.307Z,14.30
2022-11-02T12:22:14.313Z,14.40
2022-11-02T12:25:09.829Z,14.90
2022-11-02T12:28:01.391Z,14.30
2022-11-02T12:30:46.793Z,14.00
2022-11-02T12:36:06.618Z,13.70
2022-11-02T12:38:45.534Z,14.10
2022-11-02T12:41:21.653Z,14.20
2022-11-02T12:43:53.899Z,14.30
2022-11-02T12:46:48.666Z,14.50
2022-11-02T12:49:55.685Z,14.80
2022-11-02T12:54:55.787Z,15.10
2022-11-02T12:57:25.438Z,15.60
2022-11-02T13:00:05.718Z,15.00
2022-11-02T13:02:55.849Z,15.20
2022-11-02T13:05:32.952Z,15.00
2022-11-02T13:08:22.067Z,15.10
2022-11-02T13:10:55.636Z,14.80
2022-11-02T13:13:35.654Z,14.80
2022-11-02T13:16:04.056Z,14.80
2022-11-02T13:18:37.888Z,16.20
2022-11-02T13:23:41.772Z,15.30
2022-11-02T13:26:24.183Z,14.50
2022-11-02T13:28:55.584Z,15.10
2022-11-02T13:31:39.914Z,15.10
2022-11-02T13:34:12.422Z,15.10
2022-11-02T13:36:40.246Z,14.90
2022-11-02T13:39:17.019Z,14.70
2022-11-02T13:42:04.744Z,14.80
2022-11-02T13:44:59.157Z,14.90
2022-11-02T13:47:55.517Z,14.80
2022-11-02T13:50:24.757Z,14.60
2022-11-02T13:53:05.213Z,14.40
2022-11-02T13:55:46.363Z,14.50
2022-11-02T13:58:31.252Z,14.40
2022-11-02T14:01:07.978Z,14.30
2022-11-02T14:04:02.336Z,14.40
2022-11-02T14:06:31.750Z,14.40
2022-11-02T14:09:07.564Z,14.30
2022-11-02T14:11:46.229Z,14.30
2022-11-02T14:14:23.267Z,14.20
2022-11-02T14:21:59.705Z,14.20
2022-11-02T14:24:32.825Z,14.00
2022-11-02T14:27:07.213Z,14.00
2022-11-02T14:29:36.973Z,13.90
2022-11-02T14:32:11.916Z,13.80
2022-11-02T14:34:56.591Z,13.80
2022-11-02T14:37:59.743Z,13.70
2022-11-02T14:45:24.418Z,13.50
2022-11-02T14:47:59.291Z,13.40
2022-11-02T14:50:27.056Z,13.30
2022-11-02T14:53:08.717Z,13.20
2022-11-02T14:55:38.695Z,13.20
2022-11-02T14:58:20.324Z,13.20
2022-11-02T15:03:26.957Z,13.00
2022-11-02T15:06:23.832Z,12.80
2022-11-02T15:09:04.223Z,12.90
2022-11-02T15:11:46.204Z,13.20
2022-11-02T15:14:42.564Z,12.90
2022-11-02T15:17:15.648Z,12.80
2022-11-02T15:19:50.428Z,12.10
2022-11-02T15:22:32.221Z,12.40
2022-11-02T15:25:17.485Z,12.60
2022-11-02T15:27:45.828Z,12.50
2022-11-02T15:30:21.478Z,12.80
2022-11-02T15:33:01.954Z,11.20
2022-11-02T15:35:38.043Z,12.10
2022-11-02T15:38:30.352Z,12.00
2022-11-02T15:41:22.414Z,11.90
2022-11-02T15:46:22.954Z,11.50
2022-11-02T15:49:19.906Z,11.50
2022-11-02T15:51:49.745Z,11.40
2022-11-02T15:54:46.192Z,11.30
2022-11-02T15:59:49.947Z,10.50
2022-11-02T16:02:23.282Z,11.00
2022-11-02T16:04:57.185Z,10.80
2022-11-02T16:07:33.499Z,10.80
2022-11-02T16:10:13.137Z,10.50
2022-11-02T16:15:17.809Z,10.30
2022-11-02T16:17:50.085Z,10.40
2022-11-02T16:22:53.260Z,10.10
2022-11-02T16:25:44.807Z,9.90
2022-11-02T16:28:32.449Z,10.00
2022-11-02T16:31:18.580Z,9.60
2022-11-02T16:33:52.595Z,9.60
2022-11-02T16:39:00.982Z,9.50
2022-11-02T16:41:31.021Z,9.50
2022-11-02T16:44:09.639Z,9.40
2022-11-02T16:46:55.549Z,9.30
2022-11-02T16:49:24.705Z,9.70
2022-11-02T16:52:27.805Z,9.40
2022-11-02T16:57:27.387Z,9.30
2022-11-02T17:00:09.556Z,9.20
2022-11-02T17:02:42.902Z,9.20
2022-11-02T17:05:26.248Z,9.20
2022-11-02T17:08:01.610Z,9.10
2022-11-02T17:10:30.255Z,9.10
2022-11-02T17:12:57.989Z,9.20
2022-11-02T17:15:30.327Z,9.10
2022-11-02T17:18:09.790Z,9.10
2022-11-02T17:20:39.179Z,9.10
2022-11-02T17:23:28.726Z,9.10
2022-11-02T17:26:22.091Z,9.00
2022-11-02T17:28:51.629Z,9.20
2022-11-02T17:33:47.358Z,9.10
2022-11-02T17:36:15.638Z,9.20
2022-11-02T17:41:37.044Z,9.40
2022-11-02T17:44:09.921Z,9.40
2022-11-02T17:46:39.377Z,9.30
2022-11-02T17:54:04.386Z,9.20
2022-11-02T17:59:00.100Z,9.10
2022-11-02T18:11:37.129Z,9.00
2022-11-02T18:18:59.428Z,8.80
2022-11-02T18:21:26.676Z,8.90
2022-11-02T18:28:49.035Z,8.80
2022-11-02T18:41:27.805Z,8.60
2022-11-02T18:44:04.067Z,8.60
2022-11-02T18:46:34.334Z,8.60
2022-11-02T18:54:01.850Z,8.40
2022-11-02T18:58:57.194Z,8.70
2022-11-02T19:01:25.150Z,8.90
2022-11-02T19:04:02.277Z,8.80
2022-11-02T19:06:51.204Z,8.80
2022-11-02T19:09:20.044Z,9.00
2022-11-02T19:11:51.782Z,9.00
2022-11-02T19:14:21.615Z,9.10
2022-11-02T19:16:49.160Z,9.20
2022-11-02T19:19:16.369Z,9.30
2022-11-02T19:24:11.832Z,9.40
2022-11-02T19:31:35.426Z,9.40
2022-11-02T19:51:26.453Z,10.10
2022-11-02T19:53:56.149Z,9.80
2022-11-02T19:58:51.968Z,9.70
2022-11-02T20:01:24.596Z,9.70
2022-11-02T20:06:27.926Z,10.00
2022-11-02T20:08:56.639Z,9.70
2022-11-02T20:11:28.724Z,9.70
2022-11-02T20:13:59.182Z,9.70
2022-11-02T20:18:55.337Z,9.70
2022-11-02T20:21:31.083Z,9.80
2022-11-02T20:24:00.694Z,9.60
2022-11-02T20:26:31.207Z,9.70
2022-11-02T20:29:00.031Z,9.70
2022-11-02T20:31:29.583Z,9.70
2022-11-02T20:38:52.041Z,9.60
2022-11-02T20:41:20.635Z,9.70
2022-11-02T20:43:49.647Z,9.60
2022-11-02T20:46:37.648Z,9.60
2022-11-02T20:51:53.022Z,9.60
2022-11-02T20:54:21.541Z,9.40
2022-11-02T21:06:48.860Z,9.10
2022-11-02T21:09:15.820Z,9.50
2022-11-02T21:14:29.049Z,9.20
2022-11-02T21:39:10.906Z,9.50
2022-11-02T21:44:06.910Z,9.40
2022-11-02T21:56:28.114Z,9.90
2022-11-02T21:58:55.995Z,10.00
2022-11-02T22:09:10.122Z,10.20
2022-11-02T22:16:37.568Z,10.30
2022-11-02T22:19:12.769Z,10.20
2022-11-02T22:21:44.745Z,10.20
2022-11-02T22:26:40.253Z,10.30
2022-11-02T22:29:07.577Z,12.10
2022-11-02T22:31:40.164Z,10.60
2022-11-02T22:34:09.188Z,9.20
2022-11-02T22:36:37.532Z,10.30
2022-11-02T22:39:07.223Z,10.20
2022-11-02T22:41:42.121Z,10.30
2022-11-02T22:44:13.271Z,10.40
2022-11-02T22:46:42.968Z,10.30
2022-11-02T22:49:11.876Z,10.20
2022-11-02T22:51:41.214Z,10.20
2022-11-02T22:54:11.743Z,10.30
2022-11-02T23:01:35.424Z,10.30
2022-11-02T23:04:03.243Z,10.30
2022-11-02T23:06:30.249Z,10.40
2022-11-02T23:08:58.583Z,10.30
2022-11-02T23:11:29.213Z,10.30
2022-11-02T23:14:01.941Z,10.40
2022-11-02T23:16:35.083Z,10.40
2022-11-02T23:19:27.242Z,10.40
2022-11-02T23:22:28.064Z,10.40
2022-11-02T23:25:11.842Z,10.40
2022-11-02T23:30:46.438Z,10.50
2022-11-02T23:56:43.465Z,9.90
2022-11-02T23:59:11.616Z,10.30
